Time;durP1;ratioP1;P1;durP2;ratioP2;P2;SDS_P1;SDS_P2;PMS_P1;PMS_P2;Temp;Humidity;BMP_temperature;BMP_pressure;BME280_temperature;BME280_humidity;BME280_pressure;Samples;Min_cycle;Max_cycle;Signal;HPM_P1;HPM_P2
2022/11/11 00:01:39;;;;;;;;;;;;;;;29.27;25.31;101828.13;5077140;28;1143;-48
2022/11/11 00:04:04;;;;;;;;;;;;;;;29.49;24.97;101829.28;5077622;28;1182;-51
2022/11/11 00:06:29;;;;;;;;;;;;;;;28.99;25.22;101826.63;5077798;28;1187;-49
2022/11/11 00:08:55;;;;;;;;;;;;;;;28.30;26.08;101830.38;5076398;28;1115;-55
2022/11/11 00:11:20;;;;;;;;;;;;;;;28.94;25.70;101831.69;5077755;28;1131;-47
2022/11/11 00:13:45;;;;;;;;;;;;;;;29.36;25.10;101829.81;5076667;28;1139;-47
2022/11/11 00:16:11;;;;;;;;;;;;;;;29.01;25.10;101821.88;5076828;28;1155;-47
2022/11/11 00:26:45;;;;;;;;;;;;;;;29.48;24.97;101819.44;5063159;28;780;-49
2022/11/11 00:29:10;;;;;;;;;;;;;;;28.43;25.90;101819.94;5076876;28;1171;-48
2022/11/11 00:32:21;;;;;;;;;;;;;;;28.41;26.42;101824.66;5076576;28;1226;-46
2022/11/11 00:34:21;;;;;;;;;;;;;;;29.16;25.39;101821.22;5076793;28;1569;-50
2022/11/11 00:36:46;;;;;;;;;;;;;;;29.39;25.14;101815.06;5076298;28;1202;-47
2022/11/11 00:39:11;;;;;;;;;;;;;;;28.51;25.56;101813.69;5076643;28;1902;-49
2022/11/11 00:41:37;;;;;;;;;;;;;;;28.32;26.61;101822.94;5076793;28;1226;-52
2022/11/11 00:44:02;;;;;;;;;;;;;;;29.14;25.46;101812.41;5076707;28;1206;-46
2022/11/11 00:51:55;;;;;;;;;;;;;;;28.13;26.25;101816.78;5076495;28;1147;-48
2022/11/11 00:54:21;;;;;;;;;;;;;;;28.99;25.84;101817.66;5076743;28;1171;-44
2022/11/11 00:56:46;;;;;;;;;;;;;;;29.15;25.50;101811.38;5076655;28;1174;-47
2022/11/11 00:59:11;;;;;;;;;;;;;;;29.19;25.00;101819.00;5076010;28;1894;-52
2022/11/11 01:01:37;;;;;;;;;;;;;;;28.29;25.88;101820.56;5076328;28;1214;-51
2022/11/11 01:04:02;;;;;;;;;;;;;;;28.59;26.20;101815.59;5076086;28;1124;-49
2022/11/11 01:06:27;;;;;;;;;;;;;;;29.11;25.24;101824.44;5076488;28;1123;-46
2022/11/11 01:08:53;;;;;;;;;;;;;;;29.32;24.78;101815.75;5076130;28;1236;-50
2022/11/11 01:11:19;;;;;;;;;;;;;;;29.48;24.63;101813.19;5075918;28;1016;-53
2022/11/11 01:13:44;;;;;;;;;;;;;;;28.44;25.54;101813.53;5076391;28;1171;-50
2022/11/11 01:16:13;;;;;;;;;;;;;;;28.67;25.92;101818.31;5076178;28;1163;-53
2022/11/11 01:18:38;;;;;;;;;;;;;;;29.29;24.94;101809.84;5076881;28;1909;-50
2022/11/11 01:21:07;;;;;;;;;;;;;;;29.45;24.57;101808.94;5076175;28;1099;-51
2022/11/11 01:23:33;;;;;;;;;;;;;;;29.11;24.58;101816.31;5076618;28;1107;-52
2022/11/11 01:26:05;;;;;;;;;;;;;;;28.47;25.29;101810.50;5076281;28;1190;-50
2022/11/11 01:28:31;;;;;;;;;;;;;;;28.98;25.39;101808.69;5062604;28;1066;-50
2022/11/11 01:31:09;;;;;;;;;;;;;;;29.36;24.69;101810.84;5076264;28;1215;-50
2022/11/11 01:33:34;;;;;;;;;;;;;;;29.53;24.47;101814.34;5061971;28;1159;-52
2022/11/11 01:36:03;;;;;;;;;;;;;;;28.68;24.94;101803.72;5076269;28;1211;-48
2022/11/11 01:38:28;;;;;;;;;;;;;;;28.39;25.35;101802.38;5076289;28;1960;-47
2022/11/11 01:40:54;;;;;;;;;;;;;;;29.18;25.02;101803.75;5076259;28;1111;-51
2022/11/11 01:43:20;;;;;;;;;;;;;;;29.34;24.79;101808.28;5076054;28;1124;-52
2022/11/11 01:45:49;;;;;;;;;;;;;;;29.54;24.31;101807.94;5075492;28;1214;-52
2022/11/11 01:51:37;;;;;;;;;;;;;;;28.43;25.81;101802.84;5040742;28;967;-55
2022/11/11 01:54:03;;;;;;;;;;;;;;;29.19;24.88;101805.47;5056314;28;1186;-52
2022/11/11 01:56:28;;;;;;;;;;;;;;;29.30;24.67;101808.81;5038216;28;1210;-51
2022/11/11 01:58:54;;;;;;;;;;;;;;;29.24;24.35;101809.50;5038438;28;1961;-53
2022/11/11 02:01:19;;;;;;;;;;;;;;;28.43;25.13;101809.13;5057894;28;1214;-53
2022/11/11 02:05:40;;;;;;;;;;;;;;;28.73;25.40;101803.22;5075986;28;1479;-48
2022/11/11 02:06:30;;;;;;;;;;;;;;;29.15;24.63;101805.94;5041145;28;1391;-51
2022/11/11 02:08:55;;;;;;;;;;;;;;;29.33;24.65;101809.31;5038243;28;1156;-54
2022/11/11 02:14:34;;;;;;;;;;;;;;;29.01;24.59;101810.22;5071922;28;1127;-51
2022/11/11 02:17:12;;;;;;;;;;;;;;;28.98;25.13;101811.38;5016178;28;1316;-51
2022/11/11 02:20:13;;;;;;;;;;;;;;;29.21;24.51;101808.00;5017194;28;1973;-52
2022/11/11 02:22:38;;;;;;;;;;;;;;;29.38;24.28;101805.25;5000242;28;1257;-50
2022/11/11 02:25:04;;;;;;;;;;;;;;;28.34;25.19;101799.31;5066027;28;1108;-49
2022/11/11 02:27:30;;;;;;;;;;;;;;;28.34;25.53;101804.72;5079500;28;1183;-53
2022/11/11 02:29:55;;;;;;;;;;;;;;;29.01;24.98;101805.63;5061371;28;1128;-48
2022/11/11 02:32:20;;;;;;;;;;;;;;;29.22;24.61;101809.69;5079025;28;1214;-48
2022/11/11 02:34:46;;;;;;;;;;;;;;;29.35;24.38;101811.84;5078632;28;1170;-52
2022/11/11 02:37:11;;;;;;;;;;;;;;;28.43;25.06;101813.69;5079026;28;1221;-49
2022/11/11 02:39:37;;;;;;;;;;;;;;;28.25;25.52;101817.34;5078529;28;1898;-47
2022/11/11 02:42:09;;;;;;;;;;;;;;;29.05;24.92;101816.97;5060821;28;1140;-52
2022/11/11 02:44:34;;;;;;;;;;;;;;;29.13;24.77;101811.53;5078987;28;1159;-55
2022/11/11 02:46:59;;;;;;;;;;;;;;;29.22;24.28;101809.69;5078527;28;1233;-54
2022/11/11 02:49:25;;;;;;;;;;;;;;;28.27;25.63;101818.03;5078807;28;1218;-47
2022/11/11 02:51:50;;;;;;;;;;;;;;;28.57;25.37;101806.78;5079267;28;1147;-51
2022/11/11 02:54:15;;;;;;;;;;;;;;;29.09;24.91;101812.91;5078568;28;1178;-49
2022/11/11 02:59:24;;;;;;;;;;;;;;;28.93;24.59;101813.72;5077668;28;1898;-56
2022/11/11 03:01:50;;;;;;;;;;;;;;;28.44;24.90;101810.84;5078425;28;1192;-52
2022/11/11 03:04:15;;;;;;;;;;;;;;;28.93;25.15;101817.28;5078587;28;1115;-50
2022/11/11 03:06:40;;;;;;;;;;;;;;;29.29;24.50;101817.97;5077994;28;1159;-55
2022/11/11 03:09:05;;;;;;;;;;;;;;;29.49;24.16;101815.72;5078683;28;1151;-50
2022/11/11 03:11:32;;;;;;;;;;;;;;;28.68;24.71;101809.16;5078303;28;852;-45
2022/11/11 03:13:58;;;;;;;;;;;;;;;28.13;25.54;101805.16;5078326;28;1380;-46
2022/11/11 03:19:07;;;;;;;;;;;;;;;29.39;24.20;101810.50;5077867;28;1918;-52
2022/11/11 03:21:32;;;;;;;;;;;;;;;29.36;23.98;101808.13;5078487;28;1201;-46
2022/11/11 03:23:57;;;;;;;;;;;;;;;28.40;25.17;101805.88;5077485;28;892;-50
2022/11/11 03:26:23;;;;;;;;;;;;;;;28.72;25.45;101809.66;5078114;28;1203;-47
2022/11/11 03:28:48;;;;;;;;;;;;;;;28.51;25.70;101815.56;5076877;28;1233;-44
2022/11/11 03:31:14;;;;;;;;;;;;;;;28.64;25.53;101807.81;5077975;28;1124;-44
2022/11/11 03:33:39;;;;;;;;;;;;;;;28.61;25.42;101802.72;5077825;28;1203;-46
2022/11/11 03:36:04;;;;;;;;;;;;;;;28.08;25.72;101802.91;5077514;28;1054;-44
2022/11/11 03:38:30;;;;;;;;;;;;;;;27.74;26.20;101796.53;5067182;28;1894;-44
2022/11/11 03:40:55;;;;;;;;;;;;;;;28.09;26.02;101801.91;5058170;28;1222;-44
2022/11/11 03:43:22;;;;;;;;;;;;;;;28.44;25.75;101801.84;5064791;28;1219;-44
2022/11/11 03:45:47;;;;;;;;;;;;;;;28.51;25.51;101810.97;5073032;28;1140;-46
2022/11/11 03:48:12;;;;;;;;;;;;;;;27.96;25.70;101808.63;5068161;28;884;-45
2022/11/11 03:50:38;;;;;;;;;;;;;;;27.75;26.42;101812.59;5077204;28;1182;-49
2022/11/11 03:53:03;;;;;;;;;;;;;;;28.06;25.87;101813.06;5077927;28;1131;-48
2022/11/11 03:55:28;;;;;;;;;;;;;;;28.37;25.67;101820.63;5077800;28;1123;-49
2022/11/11 03:57:54;;;;;;;;;;;;;;;27.93;23.75;101817.06;5077183;28;1898;-52
2022/11/11 04:00:23;;;;;;;;;;;;;;;26.10;23.74;101820.91;5076741;28;1004;-50
2022/11/11 04:11:05;;;;;;;;;;;;;;;22.50;28.06;101812.09;5062699;28;1247;-55
2022/11/11 04:16:14;;;;;;;;;;;;;;;22.11;28.94;101807.16;5048770;28;950;-47
2022/11/11 04:21:42;;;;;;;;;;;;;;;21.71;29.29;101805.78;5064550;28;974;-51
2022/11/11 04:26:58;;;;;;;;;;;;;;;21.34;29.69;101805.00;5076607;28;1127;-47
2022/11/11 04:29:29;;;;;;;;;;;;;;;21.40;29.84;101804.53;5076712;28;1143;-42
2022/11/11 04:34:39;;;;;;;;;;;;;;;22.60;28.06;101810.41;5075883;28;1187;-39
2022/11/11 04:37:05;;;;;;;;;;;;;;;22.72;27.94;101815.75;5076826;28;1076;-40
2022/11/11 04:42:14;;;;;;;;;;;;;;;22.85;27.95;101815.56;5076530;28;1234;-44
2022/11/11 04:47:23;;;;;;;;;;;;;;;22.91;27.63;101812.38;5076119;28;1194;-45
2022/11/11 04:49:48;;;;;;;;;;;;;;;22.06;28.59;101826.28;5077102;28;1131;-46
2022/11/11 04:52:26;;;;;;;;;;;;;;;22.04;30.29;101824.72;5076644;28;1213;-40
2022/11/11 04:57:53;;;;;;;;;;;;;;;23.34;27.99;101828.50;5076424;28;1143;-38
2022/11/11 05:00:19;;;;;;;;;;;;;;;23.60;27.88;101829.00;5076635;28;842;-45
2022/11/11 05:05:28;;;;;;;;;;;;;;;23.60;28.17;101841.56;5076089;28;1152;-41
2022/11/11 05:10:37;;;;;;;;;;;;;;;23.76;28.36;101841.06;5075922;28;1175;-41
2022/11/11 05:21:34;;;;;;;;;;;;;;;25.74;26.82;101868.28;5003506;28;1188;-38
2022/11/11 05:26:43;;;;;;;;;;;;;;;25.42;27.45;101869.47;5076422;28;1179;-40
2022/11/11 05:29:08;;;;;;;;;;;;;;;26.65;25.66;101870.44;5075956;28;1214;-43
2022/11/11 05:31:33;;;;;;;;;;;;;;;26.37;26.75;101878.56;5076260;28;1116;-42
2022/11/11 05:33:59;;;;;;;;;;;;;;;25.77;27.45;101877.94;5076251;28;1131;-41
2022/11/11 05:36:24;;;;;;;;;;;;;;;27.05;25.54;101875.56;5075789;28;1237;-43
2022/11/11 05:38:49;;;;;;;;;;;;;;;27.30;25.58;101881.19;5076221;28;1902;-44
2022/11/11 05:41:14;;;;;;;;;;;;;;;27.68;25.43;101878.22;5076139;28;1203;-44
2022/11/11 05:43:40;;;;;;;;;;;;;;;27.94;25.08;101882.81;5076371;28;1178;-44
2022/11/11 05:46:05;;;;;;;;;;;;;;;28.24;25.07;101878.72;5075739;28;1135;-50
2022/11/11 05:48:31;;;;;;;;;;;;;;;28.44;24.76;101883.91;5075075;28;1212;-45
2022/11/11 05:50:59;;;;;;;;;;;;;;;28.77;24.21;101876.84;5076262;28;1119;-43
2022/11/11 05:53:24;;;;;;;;;;;;;;;29.15;23.84;101884.53;5079788;28;1238;-41
2022/11/11 05:55:50;;;;;;;;;;;;;;;29.18;23.55;101889.59;5079774;28;1147;-40
2022/11/11 05:58:18;;;;;;;;;;;;;;;29.03;23.66;101884.88;5079818;28;1959;-41
2022/11/11 06:00:43;;;;;;;;;;;;;;;29.17;23.49;101891.47;5079873;28;1181;-44
2022/11/11 06:03:08;;;;;;;;;;;;;;;29.31;23.30;101884.50;5079891;28;1115;-42
2022/11/11 06:05:37;;;;;;;;;;;;;;;29.49;23.09;101886.22;5079348;28;1112;-42
2022/11/11 06:08:02;;;;;;;;;;;;;;;29.34;22.35;101892.31;5080163;28;1184;-43
2022/11/11 06:10:30;;;;;;;;;;;;;;;28.27;23.30;101888.38;5079382;28;1156;-45
2022/11/11 06:13:03;;;;;;;;;;;;;;;28.88;23.61;101903.59;5069250;28;1260;-42
2022/11/11 06:15:29;;;;;;;;;;;;;;;29.15;23.05;101906.19;5079478;28;1124;-43
2022/11/11 06:17:54;;;;;;;;;;;;;;;27.49;24.05;101912.59;5079539;28;1167;-42
2022/11/11 06:20:19;;;;;;;;;;;;;;;26.90;25.03;101908.50;5079264;28;1971;-42
2022/11/11 06:22:56;;;;;;;;;;;;;;;27.39;24.74;101907.28;5079023;28;1159;-43
2022/11/11 06:28:06;;;;;;;;;;;;;;;26.62;25.48;101914.78;5078596;28;1195;-43
2022/11/11 06:30:32;;;;;;;;;;;;;;;27.41;25.09;101916.06;5079153;28;1199;-44
2022/11/11 06:32:57;;;;;;;;;;;;;;;28.00;24.03;101909.22;5078581;28;1144;-41
2022/11/11 06:35:22;;;;;;;;;;;;;;;28.00;23.72;101917.31;5078636;28;1255;-39
2022/11/11 06:37:48;;;;;;;;;;;;;;;27.79;24.48;101917.72;5077055;28;1069;-43
2022/11/11 06:40:13;;;;;;;;;;;;;;;26.69;25.00;101920.44;5078797;28;1898;-44
2022/11/11 06:42:38;;;;;;;;;;;;;;;26.37;26.23;101911.81;5078981;28;1196;-45
2022/11/11 06:45:04;;;;;;;;;;;;;;;27.40;24.71;101919.78;5078482;28;1128;-42
2022/11/11 06:47:29;;;;;;;;;;;;;;;27.79;24.52;101921.28;5078718;28;1124;-44
2022/11/11 06:49:55;;;;;;;;;;;;;;;27.41;25.12;101920.63;5078994;28;1095;-43
2022/11/11 06:52:20;;;;;;;;;;;;;;;26.69;26.95;101914.19;5078973;28;1163;-42
2022/11/11 06:54:45;;;;;;;;;;;;;;;27.26;26.00;101916.63;5078275;28;1151;-43
2022/11/11 06:57:10;;;;;;;;;;;;;;;27.83;25.69;101914.53;5078713;28;1140;-43
2022/11/11 06:59:36;;;;;;;;;;;;;;;27.61;25.63;101915.88;5078507;28;1964;-42
2022/11/11 07:02:01;;;;;;;;;;;;;;;26.85;27.04;101919.75;5076231;28;914;-41
2022/11/11 07:04:26;;;;;;;;;;;;;;;27.40;26.88;101925.16;5078392;28;1128;-42
2022/11/11 07:06:51;;;;;;;;;;;;;;;27.93;26.24;101921.66;5078619;28;1214;-42
2022/11/11 07:09:17;;;;;;;;;;;;;;;28.07;25.81;101929.22;5078806;28;1140;-43
2022/11/11 07:11:43;;;;;;;;;;;;;;;27.18;26.62;101930.03;5078190;28;1124;-45
2022/11/11 07:14:09;;;;;;;;;;;;;;;26.90;27.97;101932.78;5077907;28;1257;-41
2022/11/11 07:16:34;;;;;;;;;;;;;;;27.81;26.76;101930.06;5078495;28;1135;-43
2022/11/11 07:18:59;;;;;;;;;;;;;;;28.08;26.07;101935.44;5078320;28;1898;-40
2022/11/11 07:21:24;;;;;;;;;;;;;;;27.99;26.01;101935.41;5078022;28;1249;-43
2022/11/11 07:23:50;;;;;;;;;;;;;;;27.10;27.13;101936.22;5077358;28;1171;-44
2022/11/11 07:26:15;;;;;;;;;;;;;;;27.41;27.41;101942.25;5065592;28;1092;-45
2022/11/11 07:28:40;;;;;;;;;;;;;;;27.97;26.80;101940.13;5078298;28;1124;-43
2022/11/11 07:31:05;;;;;;;;;;;;;;;27.94;26.24;101937.75;5077886;28;1143;-41
2022/11/11 07:33:31;;;;;;;;;;;;;;;27.04;27.43;101934.16;5077868;28;1136;-45
2022/11/11 07:35:56;;;;;;;;;;;;;;;27.51;27.60;101938.44;5077318;28;1105;-42
2022/11/11 07:38:21;;;;;;;;;;;;;;;28.12;26.91;101936.84;5066979;28;1980;-40
2022/11/11 07:40:47;;;;;;;;;;;;;;;28.34;26.61;101932.72;5078359;28;1116;-39
2022/11/11 07:43:12;;;;;;;;;;;;;;;27.59;26.71;101939.50;5077911;28;1140;-40
2022/11/11 07:45:37;;;;;;;;;;;;;;;27.06;27.83;101929.44;5078079;28;1139;-39
2022/11/11 07:48:02;;;;;;;;;;;;;;;27.93;27.14;101935.19;5077113;28;1151;-44
2022/11/11 07:50:28;;;;;;;;;;;;;;;28.39;26.98;101931.41;5072874;28;1222;-47
2022/11/11 07:52:53;;;;;;;;;;;;;;;27.58;27.30;101933.25;5077928;28;1116;-48
2022/11/11 07:55:18;;;;;;;;;;;;;;;27.20;28.42;101929.88;5076998;28;1147;-50
2022/11/11 07:57:44;;;;;;;;;;;;;;;28.07;27.13;101928.34;5077374;28;1191;-42
2022/11/11 08:00:09;;;;;;;;;;;;;;;28.49;26.32;101926.72;5069838;28;1898;-44
2022/11/11 08:02:34;;;;;;;;;;;;;;;27.96;26.90;101929.47;5073796;28;1115;-43
2022/11/11 08:05:00;;;;;;;;;;;;;;;27.32;28.02;101927.81;5070322;28;1188;-45
2022/11/11 08:07:25;;;;;;;;;;;;;;;28.08;27.20;101933.59;5070134;28;1243;-42
2022/11/11 08:09:50;;;;;;;;;;;;;;;28.46;26.60;101936.00;5077395;28;1100;-44
2022/11/11 08:14:59;;;;;;;;;;;;;;;27.67;27.91;101938.72;5070271;28;1064;-46
2022/11/11 08:17:25;;;;;;;;;;;;;;;28.35;26.79;101941.69;5073736;28;1439;-44
2022/11/11 08:19:50;;;;;;;;;;;;;;;27.97;27.19;101940.13;5065084;28;1977;-44
2022/11/11 08:22:15;;;;;;;;;;;;;;;27.47;27.86;101937.06;5068938;28;1049;-43
2022/11/11 08:24:41;;;;;;;;;;;;;;;27.50;27.98;101941.28;5073227;28;1119;-43
2022/11/11 08:27:06;;;;;;;;;;;;;;;27.30;28.31;101938.78;5073058;28;1179;-45
2022/11/11 08:29:31;;;;;;;;;;;;;;;27.52;28.45;101942.00;5076908;28;1116;-46
2022/11/11 08:31:56;;;;;;;;;;;;;;;28.13;27.58;101935.81;5076760;28;1116;-44
2022/11/11 08:34:22;;;;;;;;;;;;;;;27.38;28.21;101943.38;5076977;28;1123;-43
2022/11/11 08:36:47;;;;;;;;;;;;;;;27.52;28.46;101944.69;5073219;28;1128;-46
2022/11/11 08:39:12;;;;;;;;;;;;;;;27.72;27.85;101945.38;5072325;28;1955;-45
2022/11/11 08:41:38;;;;;;;;;;;;;;;27.30;28.76;101952.28;5062182;28;1235;-44
2022/11/11 08:44:03;;;;;;;;;;;;;;;27.83;28.14;101946.97;5073824;28;1124;-42
2022/11/11 08:46:29;;;;;;;;;;;;;;;28.09;27.46;101956.91;5076715;28;1202;-39
2022/11/11 08:48:54;;;;;;;;;;;;;;;27.32;28.55;101954.81;5073035;28;1120;-45
2022/11/11 08:51:19;;;;;;;;;;;;;;;27.71;28.17;101956.38;5076806;28;1147;-44
2022/11/11 08:53:45;;;;;;;;;;;;;;;28.32;27.36;101952.81;5066201;28;1203;-41
2022/11/11 08:56:11;;;;;;;;;;;;;;;28.47;27.27;101953.94;5066677;28;1226;-40
2022/11/11 08:58:36;;;;;;;;;;;;;;;27.56;28.15;101950.66;5063086;28;1960;-42
2022/11/11 09:01:02;;;;;;;;;;;;;;;27.24;29.08;101956.44;5066673;28;1262;-39
2022/11/11 09:03:29;;;;;;;;;;;;;;;27.07;29.81;101947.34;5062695;28;1202;-38
2022/11/11 09:05:54;;;;;;;;;;;;;;;26.93;30.39;101948.69;5065184;28;1057;-41
2022/11/11 09:08:19;;;;;;;;;;;;;;;27.61;29.17;101951.84;5061874;28;1212;-41
2022/11/11 09:10:44;;;;;;;;;;;;;;;27.10;29.61;101948.88;5070175;28;1199;-40
2022/11/11 09:13:10;;;;;;;;;;;;;;;27.04;30.36;101953.06;5075523;28;1256;-41
2022/11/11 09:15:35;;;;;;;;;;;;;;;27.60;28.97;101952.88;5064687;28;1230;-41
2022/11/11 09:18:00;;;;;;;;;;;;;;;27.09;29.73;101948.03;5062820;28;1235;-42
2022/11/11 09:20:26;;;;;;;;;;;;;;;27.41;29.40;101948.47;5076068;28;1913;-40
2022/11/11 09:22:51;;;;;;;;;;;;;;;27.54;29.24;101948.09;5070553;28;1167;-39
2022/11/11 09:25:17;;;;;;;;;;;;;;;26.94;29.90;101946.84;5064730;28;1203;-42
2022/11/11 09:27:42;;;;;;;;;;;;;;;27.40;29.45;101946.78;5070181;28;1144;-38
2022/11/11 09:30:08;;;;;;;;;;;;;;;27.20;29.50;101944.25;5079832;28;1231;-38
2022/11/11 09:32:33;;;;;;;;;;;;;;;26.71;30.29;101947.28;5079943;28;1180;-41
2022/11/11 09:34:59;;;;;;;;;;;;;;;27.36;29.49;101937.31;5079773;28;1243;-40
2022/11/11 09:37:24;;;;;;;;;;;;;;;27.00;29.77;101941.69;5074316;28;1255;-39
2022/11/11 09:39:49;;;;;;;;;;;;;;;26.80;30.12;101940.94;5072150;28;1894;-40
2022/11/11 09:42:18;;;;;;;;;;;;;;;27.33;29.44;101926.78;5080187;28;1222;-39
2022/11/11 09:44:55;;;;;;;;;;;;;;;26.74;30.61;101934.28;5080358;28;1135;-38
2022/11/11 09:47:26;;;;;;;;;;;;;;;27.10;29.67;101940.78;5080551;28;1203;-39
2022/11/11 09:50:04;;;;;;;;;;;;;;;27.13;30.04;101930.53;5055436;28;1117;-40
2022/11/11 09:52:36;;;;;;;;;;;;;;;26.19;30.34;101933.28;5079746;28;1093;-38
2022/11/11 09:55:02;;;;;;;;;;;;;;;26.63;30.31;101935.38;5079872;28;1108;-39
2022/11/11 09:57:36;;;;;;;;;;;;;;;26.45;29.04;101932.63;5061553;28;1179;-39
2022/11/11 10:00:01;;;;;;;;;;;;;;;25.82;29.93;101937.66;5061145;28;1914;-38
2022/11/11 10:02:45;;;;;;;;;;;;;;;26.53;29.48;101934.56;5078239;28;991;-38
2022/11/11 10:05:15;;;;;;;;;;;;;;;26.59;28.00;101936.66;5055780;28;1406;-39
2022/11/11 10:07:42;;;;;;;;;;;;;;;26.06;28.92;101927.38;5070134;28;1148;-38
2022/11/11 10:10:11;;;;;;;;;;;;;;;26.62;28.81;101927.44;5055867;28;1277;-40
2022/11/11 10:12:39;;;;;;;;;;;;;;;26.46;29.51;101938.88;5062012;28;1136;-40
2022/11/11 10:15:04;;;;;;;;;;;;;;;26.18;29.85;101939.66;5058202;28;1343;-39
2022/11/11 10:17:33;;;;;;;;;;;;;;;27.09;28.37;101939.91;5061052;28;1179;-41
2022/11/11 10:20:16;;;;;;;;;;;;;;;26.68;29.10;101934.91;5079182;28;1975;-38
2022/11/11 10:22:42;;;;;;;;;;;;;;;26.24;30.13;101935.53;5065837;28;1175;-39
2022/11/11 10:25:13;;;;;;;;;;;;;;;26.94;28.77;101939.59;5079644;28;1107;-40
2022/11/11 10:27:39;;;;;;;;;;;;;;;26.47;29.48;101940.56;5078040;28;1114;-39
2022/11/11 10:30:23;;;;;;;;;;;;;;;26.27;29.93;101932.53;5061582;28;1238;-39
2022/11/11 10:33:05;;;;;;;;;;;;;;;27.17;28.63;101935.59;5077299;28;1243;-42
2022/11/11 10:35:31;;;;;;;;;;;;;;;26.60;29.54;101932.97;5079506;28;1127;-40
2022/11/11 10:38:09;;;;;;;;;;;;;;;26.22;30.26;101932.13;5073111;28;1096;-39
2022/11/11 10:40:46;;;;;;;;;;;;;;;26.79;29.34;101928.47;5076310;28;1088;-40
2022/11/11 10:43:32;;;;;;;;;;;;;;;26.23;30.39;101928.41;5078763;28;1115;-40
2022/11/11 10:46:12;;;;;;;;;;;;;;;26.08;29.55;101931.59;5078268;28;1710;-44
2022/11/11 10:48:37;;;;;;;;;;;;;;;25.38;29.42;101927.31;5078587;28;1135;-48
2022/11/11 10:51:03;;;;;;;;;;;;;;;25.29;28.96;101929.84;5070036;28;1425;-46
2022/11/11 10:53:34;;;;;;;;;;;;;;;24.99;29.04;101928.97;5060255;28;1302;-44
2022/11/11 10:56:08;;;;;;;;;;;;;;;24.81;29.38;101918.03;5040392;28;1105;-44
2022/11/11 10:58:36;;;;;;;;;;;;;;;24.80;28.93;101919.03;5040665;28;1968;-41
2022/11/11 11:01:02;;;;;;;;;;;;;;;24.80;29.08;101913.63;5077827;28;1167;-44
2022/11/11 11:03:35;;;;;;;;;;;;;;;24.92;29.11;101915.22;5054058;28;1157;-44
2022/11/11 11:06:10;;;;;;;;;;;;;;;25.15;29.41;101912.31;5078302;28;1163;-41
2022/11/11 11:08:37;;;;;;;;;;;;;;;25.55;28.90;101921.22;5078019;28;1199;-41
2022/11/11 11:11:19;;;;;;;;;;;;;;;26.35;28.48;101921.88;5060158;28;1220;-38
2022/11/11 11:13:46;;;;;;;;;;;;;;;26.15;29.07;101924.63;5058589;28;1192;-39
2022/11/11 11:16:16;;;;;;;;;;;;;;;26.51;28.73;101914.97;5075918;28;1290;-38
2022/11/11 11:18:43;;;;;;;;;;;;;;;26.94;28.07;101918.00;5060745;28;2034;-40
2022/11/11 11:21:08;;;;;;;;;;;;;;;26.38;29.56;101918.03;5059781;28;1061;-40
2022/11/11 11:23:34;;;;;;;;;;;;;;;26.62;28.94;101914.78;5060484;28;1117;-42
2022/11/11 11:26:01;;;;;;;;;;;;;;;26.58;29.26;101909.81;5076295;28;1195;-39
2022/11/11 11:28:27;;;;;;;;;;;;;;;26.31;29.55;101912.34;5079218;28;1318;-41
2022/11/11 11:31:18;;;;;;;;;;;;;;;26.92;28.88;101911.91;5077882;28;1486;-42
2022/11/11 11:33:53;;;;;;;;;;;;;;;26.62;29.47;101916.63;5083664;28;1132;-38
2022/11/11 11:36:19;;;;;;;;;;;;;;;26.40;29.65;101911.50;5073638;28;1227;-39
2022/11/11 11:38:46;;;;;;;;;;;;;;;27.09;28.67;101923.72;5074617;28;1901;-37
2022/11/11 11:41:11;;;;;;;;;;;;;;;26.49;29.54;101915.13;5077409;28;990;-39
2022/11/11 11:43:37;;;;;;;;;;;;;;;26.74;29.62;101918.09;5076312;28;1241;-39
2022/11/11 11:46:20;;;;;;;;;;;;;;;27.34;28.84;101929.34;5077317;28;1215;-38
2022/11/11 11:48:51;;;;;;;;;;;;;;;26.60;29.88;101913.22;5076476;28;1262;-39
2022/11/11 11:51:23;;;;;;;;;;;;;;;26.71;29.80;101929.22;5074898;28;998;-38
2022/11/11 11:54:10;;;;;;;;;;;;;;;27.33;28.93;101938.47;5077018;28;1206;-38
2022/11/11 11:56:39;;;;;;;;;;;;;;;26.56;30.13;101933.44;5059320;28;1085;-39
2022/11/11 11:59:08;;;;;;;;;;;;;;;26.90;29.75;101930.09;5058733;28;1951;-37
2022/11/11 12:01:33;;;;;;;;;;;;;;;27.16;28.93;101937.44;5076906;28;1147;-37
2022/11/11 12:04:22;;;;;;;;;;;;;;;26.63;29.71;101929.13;5060276;28;1219;-41
2022/11/11 12:06:53;;;;;;;;;;;;;;;27.14;29.47;101940.31;5034541;28;1126;-40
2022/11/11 12:09:24;;;;;;;;;;;;;;;26.94;29.60;101938.75;5075430;28;1199;-43
2022/11/11 12:11:58;;;;;;;;;;;;;;;26.51;30.12;101942.81;5058401;28;1112;-43
2022/11/11 12:14:26;;;;;;;;;;;;;;;27.35;29.41;101941.84;5073024;28;1122;-44
2022/11/11 12:17:20;;;;;;;;;;;;;;;26.92;29.33;101944.28;5068064;28;1093;-43
2022/11/11 12:19:58;;;;;;;;;;;;;;;26.74;30.38;101941.56;5058866;28;1898;-41
2022/11/11 12:22:38;;;;;;;;;;;;;;;27.19;29.11;101936.31;5076514;28;1132;-43
2022/11/11 12:25:10;;;;;;;;;;;;;;;26.73;30.14;101931.75;5079495;28;1170;-45
2022/11/11 12:27:38;;;;;;;;;;;;;;;27.31;29.44;101937.75;5069915;28;1139;-44
2022/11/11 12:30:06;;;;;;;;;;;;;;;27.52;28.92;101939.28;5076780;28;1202;-42
2022/11/11 12:32:35;;;;;;;;;;;;;;;26.82;29.74;101932.69;5076425;28;1202;-47
2022/11/11 12:35:19;;;;;;;;;;;;;;;27.33;29.68;101941.16;5076511;28;1210;-44
2022/11/11 12:38:10;;;;;;;;;;;;;;;27.89;28.55;101940.09;5073197;28;1033;-44
2022/11/11 12:40:54;;;;;;;;;;;;;;;27.68;28.71;101943.09;5067039;28;1343;-46
2022/11/11 12:43:28;;;;;;;;;;;;;;;27.10;29.27;101935.38;5073992;28;1176;-45
2022/11/11 12:46:00;;;;;;;;;;;;;;;27.10;29.59;101933.53;5070087;28;1445;-46
2022/11/11 12:48:41;;;;;;;;;;;;;;;26.94;29.80;101931.50;5048364;28;1282;-51
2022/11/11 12:51:06;;;;;;;;;;;;;;;27.53;29.53;101935.56;5065976;28;1247;-44
2022/11/11 12:53:35;;;;;;;;;;;;;;;27.18;29.75;101940.84;5076308;28;1127;-48
2022/11/11 12:56:03;;;;;;;;;;;;;;;26.97;30.30;101933.88;5076189;28;1195;-43
2022/11/11 12:58:34;;;;;;;;;;;;;;;27.67;29.04;101938.72;5076106;28;1973;-48
2022/11/11 13:01:07;;;;;;;;;;;;;;;26.98;29.63;101930.16;5076066;28;1107;-41
2022/11/11 13:03:35;;;;;;;;;;;;;;;27.40;29.76;101938.69;5053662;28;1159;-44
2022/11/11 13:06:01;;;;;;;;;;;;;;;27.87;29.02;101937.56;5080551;28;1151;-43
2022/11/11 13:08:49;;;;;;;;;;;;;;;27.06;29.88;101934.00;5078692;28;1139;-41
2022/11/11 13:11:33;;;;;;;;;;;;;;;27.59;29.89;101943.03;5030839;28;1201;-50
2022/11/11 13:14:04;;;;;;;;;;;;;;;27.24;29.79;101939.41;5045265;28;1129;-43
2022/11/11 13:16:30;;;;;;;;;;;;;;;27.02;30.96;101936.16;5073012;28;913;-44
2022/11/11 13:18:58;;;;;;;;;;;;;;;27.97;29.38;101942.84;5076524;28;1969;-47
2022/11/11 13:21:38;;;;;;;;;;;;;;;28.20;29.08;101934.16;5075867;28;1131;-46
2022/11/11 13:24:04;;;;;;;;;;;;;;;28.19;28.69;101937.91;5076516;28;1108;-46
2022/11/11 13:26:34;;;;;;;;;;;;;;;27.36;29.35;101945.41;5058563;28;1168;-46
2022/11/11 13:29:07;;;;;;;;;;;;;;;27.31;29.63;101936.94;5057128;28;1152;-45
2022/11/11 13:31:34;;;;;;;;;;;;;;;27.07;30.15;101941.94;5076733;28;1143;-45
2022/11/11 13:34:03;;;;;;;;;;;;;;;27.32;29.97;101947.56;5058192;28;1144;-44
2022/11/11 13:36:29;;;;;;;;;;;;;;;28.06;28.84;101945.59;5058422;28;1200;-44
2022/11/11 13:38:54;;;;;;;;;;;;;;;28.33;28.34;101954.53;5057873;28;1964;-42
2022/11/11 13:41:24;;;;;;;;;;;;;;;27.53;29.22;101954.50;5075980;28;1123;-45
2022/11/11 13:43:50;;;;;;;;;;;;;;;27.49;30.00;101947.72;5075757;28;1147;-46
2022/11/11 13:46:24;;;;;;;;;;;;;;;27.25;29.69;101943.78;5075592;28;1135;-47
2022/11/11 13:48:49;;;;;;;;;;;;;;;27.18;30.59;101942.69;5073344;28;1191;-52
2022/11/11 13:51:25;;;;;;;;;;;;;;;27.99;29.35;101948.09;5047515;28;1231;-53
2022/11/11 13:53:50;;;;;;;;;;;;;;;28.34;28.77;101951.66;5049024;28;1200;-48
2022/11/11 13:56:21;;;;;;;;;;;;;;;27.82;29.03;101952.53;5066123;28;1270;-48
2022/11/11 13:58:46;;;;;;;;;;;;;;;27.31;30.19;101961.25;5046557;28;1910;-51
2022/11/11 14:01:11;;;;;;;;;;;;;;;27.31;29.83;101947.72;5047667;28;1184;-47
2022/11/11 14:03:43;;;;;;;;;;;;;;;27.10;30.08;101948.88;5064816;28;1251;-43
2022/11/11 14:06:14;;;;;;;;;;;;;;;27.75;29.51;101953.19;5073488;28;1101;-45
2022/11/11 14:08:46;;;;;;;;;;;;;;;28.31;28.81;101951.97;5075103;28;1218;-46